sensor_id;sensor_type;location;lat;lon;timestamp;pressure;altitude;pressure_sealevel;temperature;humidity
3178;BME280;38141;42.666;23.344;2023-02-21T00:01:41;95045.47;;;5.69;90.89
3178;BME280;38141;42.666;23.344;2023-02-21T00:04:25;95026.28;;;5.55;90.53
3178;BME280;38141;42.666;23.344;2023-02-21T00:07:09;95040.94;;;5.85;88.89
3178;BME280;38141;42.666;23.344;2023-02-21T00:09:55;95045.00;;;5.79;88.67
3178;BME280;38141;42.666;23.344;2023-02-21T00:12:39;95047.72;;;5.67;88.61
3178;BME280;38141;42.666;23.344;2023-02-21T00:15:23;95042.63;;;5.77;89.91
3178;BME280;38141;42.666;23.344;2023-02-21T00:18:07;95045.22;;;5.74;90.86
3178;BME280;38141;42.666;23.344;2023-02-21T00:20:51;95057.53;;;5.75;89.87
3178;BME280;38141;42.666;23.344;2023-02-21T00:23:35;95025.47;;;5.66;89.83
3178;BME280;38141;42.666;23.344;2023-02-21T00:26:21;95046.25;;;5.69;90.34
3178;BME280;38141;42.666;23.344;2023-02-21T00:29:06;95042.69;;;5.65;90.62
3178;BME280;38141;42.666;23.344;2023-02-21T00:31:50;95040.09;;;5.69;90.73
3178;BME280;38141;42.666;23.344;2023-02-21T00:34:35;95032.06;;;5.69;89.57
3178;BME280;38141;42.666;23.344;2023-02-21T00:37:19;95040.19;;;5.72;89.84
3178;BME280;38141;42.666;23.344;2023-02-21T00:40:04;95023.72;;;5.58;90.07
3178;BME280;38141;42.666;23.344;2023-02-21T00:42:50;95029.19;;;5.34;93.94
3178;BME280;38141;42.666;23.344;2023-02-21T00:45:35;95036.88;;;5.63;92.04
3178;BME280;38141;42.666;23.344;2023-02-21T00:48:19;95017.47;;;5.54;91.75
3178;BME280;38141;42.666;23.344;2023-02-21T00:51:04;95020.69;;;5.60;91.51
3178;BME280;38141;42.666;23.344;2023-02-21T00:53:48;95012.16;;;5.70;90.94
3178;BME280;38141;42.666;23.344;2023-02-21T00:56:32;95010.81;;;5.64;91.33
3178;BME280;38141;42.666;23.344;2023-02-21T00:59:17;95010.16;;;5.67;91.44
3178;BME280;38141;42.666;23.344;2023-02-21T01:02:01;94995.72;;;5.71;90.97
3178;BME280;38141;42.666;23.344;2023-02-21T01:04:45;94983.66;;;5.65;90.11
3178;BME280;38141;42.666;23.344;2023-02-21T01:07:30;94987.81;;;5.63;91.02
3178;BME280;38141;42.666;23.344;2023-02-21T01:10:14;94973.00;;;5.69;89.94
3178;BME280;38141;42.666;23.344;2023-02-21T01:12:58;94985.75;;;5.72;90.20
3178;BME280;38141;42.666;23.344;2023-02-21T01:15:44;94977.25;;;5.70;89.42
3178;BME280;38141;42.666;23.344;2023-02-21T01:18:28;94970.78;;;5.71;90.38
3178;BME280;38141;42.666;23.344;2023-02-21T01:21:13;94952.50;;;5.61;89.11
3178;BME280;38141;42.666;23.344;2023-02-21T01:23:57;94968.72;;;5.80;88.61
3178;BME280;38141;42.666;23.344;2023-02-21T01:26:41;94956.50;;;5.82;89.15
3178;BME280;38141;42.666;23.344;2023-02-21T01:29:25;94963.16;;;5.73;89.60
3178;BME280;38141;42.666;23.344;2023-02-21T01:32:10;94968.06;;;5.55;90.29
3178;BME280;38141;42.666;23.344;2023-02-21T01:34:54;94965.38;;;5.55;90.53
3178;BME280;38141;42.666;23.344;2023-02-21T01:37:38;94851.66;;;4.73;90.80
3178;BME280;38141;42.666;23.344;2023-02-21T01:40:23;94915.34;;;5.19;88.90
3178;BME280;38141;42.666;23.344;2023-02-21T01:43:13;94965.03;;;5.72;89.30
3178;BME280;38141;42.666;23.344;2023-02-21T01:45:57;94918.97;;;5.39;89.83
3178;BME280;38141;42.666;23.344;2023-02-21T01:48:42;94962.81;;;5.74;89.21
3178;BME280;38141;42.666;23.344;2023-02-21T01:51:31;94956.25;;;5.72;89.79
3178;BME280;38141;42.666;23.344;2023-02-21T01:54:17;94957.78;;;5.73;89.83
3178;BME280;38141;42.666;23.344;2023-02-21T01:57:03;94928.22;;;5.42;90.97
3178;BME280;38141;42.666;23.344;2023-02-21T01:59:51;94946.63;;;5.71;89.88
3178;BME280;38141;42.666;23.344;2023-02-21T02:02:40;94928.88;;;5.66;89.74
3178;BME280;38141;42.666;23.344;2023-02-21T02:05:28;94900.81;;;5.48;89.70
3178;BME280;38141;42.666;23.344;2023-02-21T02:08:13;94908.25;;;5.55;89.71
3178;BME280;38141;42.666;23.344;2023-02-21T02:11:05;94926.53;;;5.80;87.88
3178;BME280;38141;42.666;23.344;2023-02-21T02:14:06;94920.13;;;5.69;88.27
3178;BME280;38141;42.666;23.344;2023-02-21T02:16:42;94924.53;;;5.62;89.54
3178;BME280;38141;42.666;23.344;2023-02-21T02:25:24;94921.00;;;5.73;89.97
3178;BME280;38141;42.666;23.344;2023-02-21T02:31:23;94915.44;;;5.82;88.89
3178;BME280;38141;42.666;23.344;2023-02-21T02:34:29;94905.25;;;5.72;90.32
3178;BME280;38141;42.666;23.344;2023-02-21T02:37:05;94911.13;;;5.77;89.87
3178;BME280;38141;42.666;23.344;2023-02-21T02:39:40;94909.47;;;5.57;91.59
3178;BME280;38141;42.666;23.344;2023-02-21T02:42:13;94921.16;;;5.65;91.95
3178;BME280;38141;42.666;23.344;2023-02-21T02:44:48;94899.28;;;5.63;90.92
3178;BME280;38141;42.666;23.344;2023-02-21T02:47:21;94894.50;;;5.56;91.02
3178;BME280;38141;42.666;23.344;2023-02-21T02:49:51;94908.19;;;5.67;90.57
3178;BME280;38141;42.666;23.344;2023-02-21T02:52:20;94893.00;;;5.59;90.51
3178;BME280;38141;42.666;23.344;2023-02-21T02:54:57;94912.94;;;5.73;89.11
3178;BME280;38141;42.666;23.344;2023-02-21T02:57:24;94905.13;;;5.68;88.75
3178;BME280;38141;42.666;23.344;2023-02-21T02:59:51;94899.69;;;5.49;91.22
3178;BME280;38141;42.666;23.344;2023-02-21T03:02:34;94864.63;;;5.26;90.55
3178;BME280;38141;42.666;23.344;2023-02-21T03:05:13;94902.72;;;5.48;90.43
3178;BME280;38141;42.666;23.344;2023-02-21T03:07:51;94890.00;;;5.45;89.51
3178;BME280;38141;42.666;23.344;2023-02-21T03:10:31;94906.00;;;5.57;90.41
3178;BME280;38141;42.666;23.344;2023-02-21T03:13:04;94917.84;;;5.56;89.64
3178;BME280;38141;42.666;23.344;2023-02-21T03:15:38;94901.59;;;5.64;88.90
3178;BME280;38141;42.666;23.344;2023-02-21T03:18:13;94904.63;;;5.63;87.93
3178;BME280;38141;42.666;23.344;2023-02-21T03:20:44;94906.38;;;5.71;88.35
3178;BME280;38141;42.666;23.344;2023-02-21T03:23:13;94914.06;;;5.72;88.94
3178;BME280;38141;42.666;23.344;2023-02-21T03:25:43;94893.28;;;5.69;87.59
3178;BME280;38141;42.666;23.344;2023-02-21T03:28:11;94903.16;;;5.81;86.34
3178;BME280;38141;42.666;23.344;2023-02-21T03:30:40;94860.81;;;5.59;86.35
3178;BME280;38141;42.666;23.344;2023-02-21T03:33:07;94872.06;;;5.49;88.55
3178;BME280;38141;42.666;23.344;2023-02-21T03:35:34;94869.56;;;5.40;89.37
3178;BME280;38141;42.666;23.344;2023-02-21T03:38:03;94894.94;;;5.58;89.27
3178;BME280;38141;42.666;23.344;2023-02-21T03:40:31;94900.38;;;5.62;88.17
3178;BME280;38141;42.666;23.344;2023-02-21T03:43:01;94839.09;;;5.48;86.14
3178;BME280;38141;42.666;23.344;2023-02-21T03:45:29;94887.41;;;5.79;86.29
3178;BME280;38141;42.666;23.344;2023-02-21T03:47:56;94884.03;;;5.67;86.62
3178;BME280;38141;42.666;23.344;2023-02-21T03:50:23;94875.09;;;5.47;88.26
3178;BME280;38141;42.666;23.344;2023-02-21T03:52:49;94903.69;;;5.71;87.93
3178;BME280;38141;42.666;23.344;2023-02-21T03:55:18;94903.00;;;5.58;89.27
3178;BME280;38141;42.666;23.344;2023-02-21T03:57:45;94903.66;;;5.55;88.75
3178;BME280;38141;42.666;23.344;2023-02-21T04:00:13;94883.81;;;5.28;89.87
3178;BME280;38141;42.666;23.344;2023-02-21T04:02:40;94901.91;;;5.47;90.05
3178;BME280;38141;42.666;23.344;2023-02-21T04:05:07;94892.50;;;5.53;90.04
3178;BME280;38141;42.666;23.344;2023-02-21T04:07:33;94897.44;;;5.51;90.18
3178;BME280;38141;42.666;23.344;2023-02-21T04:10:00;94901.38;;;5.42;91.45
3178;BME280;38141;42.666;23.344;2023-02-21T04:12:28;94915.91;;;5.41;91.25
3178;BME280;38141;42.666;23.344;2023-02-21T04:14:55;94919.84;;;5.43;91.11
3178;BME280;38141;42.666;23.344;2023-02-21T04:17:23;94897.13;;;5.25;91.20
3178;BME280;38141;42.666;23.344;2023-02-21T04:19:49;94929.69;;;5.39;90.93
3178;BME280;38141;42.666;23.344;2023-02-21T04:22:16;94925.94;;;5.28;92.15
3178;BME280;38141;42.666;23.344;2023-02-21T04:24:43;94926.06;;;5.47;92.11
3178;BME280;38141;42.666;23.344;2023-02-21T04:27:12;94930.13;;;5.41;91.19
3178;BME280;38141;42.666;23.344;2023-02-21T04:29:40;94932.28;;;5.35;91.88
3178;BME280;38141;42.666;23.344;2023-02-21T04:32:08;94937.28;;;5.37;91.94
3178;BME280;38141;42.666;23.344;2023-02-21T04:34:35;94917.41;;;5.10;92.82
3178;BME280;38141;42.666;23.344;2023-02-21T04:37:03;94941.75;;;5.17;94.20
3178;BME280;38141;42.666;23.344;2023-02-21T04:39:30;94938.19;;;5.13;94.87
3178;BME280;38141;42.666;23.344;2023-02-21T04:41:56;94949.59;;;5.10;93.39
3178;BME280;38141;42.666;23.344;2023-02-21T04:44:23;94923.53;;;4.95;95.33
3178;BME280;38141;42.666;23.344;2023-02-21T04:46:51;94935.00;;;4.96;93.90
3178;BME280;38141;42.666;23.344;2023-02-21T04:49:18;94930.19;;;5.01;94.48
3178;BME280;38141;42.666;23.344;2023-02-21T04:51:45;94929.56;;;5.20;94.10
3178;BME280;38141;42.666;23.344;2023-02-21T04:54:11;94932.22;;;4.92;94.75
3178;BME280;38141;42.666;23.344;2023-02-21T04:56:38;94929.59;;;5.08;95.17
3178;BME280;38141;42.666;23.344;2023-02-21T04:59:05;94928.19;;;4.98;95.90
3178;BME280;38141;42.666;23.344;2023-02-21T05:01:32;94894.19;;;4.74;96.51
3178;BME280;38141;42.666;23.344;2023-02-21T05:04:01;94888.94;;;4.78;95.19
3178;BME280;38141;42.666;23.344;2023-02-21T05:06:29;94890.75;;;4.74;96.58
3178;BME280;38141;42.666;23.344;2023-02-21T05:08:56;94894.91;;;4.71;95.59
3178;BME280;38141;42.666;23.344;2023-02-21T05:11:23;94917.41;;;4.82;96.40
3178;BME280;38141;42.666;23.344;2023-02-21T05:13:50;94883.81;;;4.73;95.68
3178;BME280;38141;42.666;23.344;2023-02-21T05:16:18;94904.22;;;4.77;97.41
3178;BME280;38141;42.666;23.344;2023-02-21T05:18:46;94899.09;;;4.84;95.59
3178;BME280;38141;42.666;23.344;2023-02-21T05:21:15;94901.81;;;5.00;95.73
3178;BME280;38141;42.666;23.344;2023-02-21T05:23:42;94899.56;;;5.02;96.01
3178;BME280;38141;42.666;23.344;2023-02-21T05:26:21;94894.13;;;4.99;96.06
3178;BME280;38141;42.666;23.344;2023-02-21T05:28:49;94872.72;;;4.59;95.70
3178;BME280;38141;42.666;23.344;2023-02-21T05:31:16;94893.91;;;4.91;96.85
3178;BME280;38141;42.666;23.344;2023-02-21T05:33:42;94903.34;;;4.73;97.30
3178;BME280;38141;42.666;23.344;2023-02-21T05:36:09;94899.91;;;4.73;100.00
3178;BME280;38141;42.666;23.344;2023-02-21T05:38:45;94880.03;;;4.74;99.65
3178;BME280;38141;42.666;23.344;2023-02-21T05:41:12;94895.91;;;5.22;95.47
3178;BME280;38141;42.666;23.344;2023-02-21T05:43:39;94899.16;;;5.59;91.37
3178;BME280;38141;42.666;23.344;2023-02-21T05:46:16;94908.03;;;5.91;87.08
3178;BME280;38141;42.666;23.344;2023-02-21T05:48:43;94910.88;;;6.14;86.17
3178;BME280;38141;42.666;23.344;2023-02-21T05:51:09;94887.81;;;6.29;82.80
3178;BME280;38141;42.666;23.344;2023-02-21T05:53:36;94925.66;;;6.74;78.09
3178;BME280;38141;42.666;23.344;2023-02-21T05:56:05;94920.22;;;7.09;75.84
3178;BME280;38141;42.666;23.344;2023-02-21T05:58:31;94935.63;;;7.70;71.79
3178;BME280;38141;42.666;23.344;2023-02-21T06:00:58;94938.31;;;8.15;69.24
3178;BME280;38141;42.666;23.344;2023-02-21T06:03:25;94927.34;;;8.76;65.74
3178;BME280;38141;42.666;23.344;2023-02-21T06:05:53;94927.88;;;9.49;62.46
3178;BME280;38141;42.666;23.344;2023-02-21T06:08:19;94933.81;;;10.02;59.68
3178;BME280;38141;42.666;23.344;2023-02-21T06:10:46;94929.03;;;10.29;58.86
3178;BME280;38141;42.666;23.344;2023-02-21T06:13:14;94925.97;;;10.85;56.18
3178;BME280;38141;42.666;23.344;2023-02-21T06:15:41;94938.19;;;10.61;56.37
3178;BME280;38141;42.666;23.344;2023-02-21T06:18:08;94932.31;;;11.17;54.98
3178;BME280;38141;42.666;23.344;2023-02-21T06:20:34;94935.34;;;12.16;52.18
3178;BME280;38141;42.666;23.344;2023-02-21T06:23:01;94939.19;;;12.97;51.40
3178;BME280;38141;42.666;23.344;2023-02-21T06:25:28;94931.66;;;13.57;48.92
3178;BME280;38141;42.666;23.344;2023-02-21T06:27:55;94941.63;;;13.81;47.03
3178;BME280;38141;42.666;23.344;2023-02-21T06:30:23;94935.53;;;14.25;45.68
3178;BME280;38141;42.666;23.344;2023-02-21T06:32:50;94932.19;;;14.62;45.29
3178;BME280;38141;42.666;23.344;2023-02-21T06:35:17;94940.56;;;15.20;43.71
3178;BME280;38141;42.666;23.344;2023-02-21T06:37:43;94943.47;;;15.39;42.64
3178;BME280;38141;42.666;23.344;2023-02-21T06:40:11;94940.13;;;15.62;41.71
3178;BME280;38141;42.666;23.344;2023-02-21T06:42:37;94945.84;;;16.01;41.14
3178;BME280;38141;42.666;23.344;2023-02-21T06:45:04;94960.84;;;16.43;40.45
3178;BME280;38141;42.666;23.344;2023-02-21T06:47:33;94939.00;;;16.70;40.29
3178;BME280;38141;42.666;23.344;2023-02-21T06:50:00;94942.56;;;16.90;39.14
3178;BME280;38141;42.666;23.344;2023-02-21T06:52:26;94951.47;;;16.71;39.25
3178;BME280;38141;42.666;23.344;2023-02-21T06:54:53;94955.53;;;17.29;38.50
3178;BME280;38141;42.666;23.344;2023-02-21T06:57:20;94952.22;;;15.91;40.32
3178;BME280;38141;42.666;23.344;2023-02-21T06:59:47;94928.41;;;16.96;38.69
3178;BME280;38141;42.666;23.344;2023-02-21T07:02:15;94941.06;;;16.36;39.17
3178;BME280;38141;42.666;23.344;2023-02-21T07:04:45;94927.91;;;16.54;38.94
3178;BME280;38141;42.666;23.344;2023-02-21T07:07:14;94920.69;;;16.40;38.75
3178;BME280;38141;42.666;23.344;2023-02-21T07:09:41;94939.25;;;16.79;38.62
3178;BME280;38141;42.666;23.344;2023-02-21T07:12:08;94949.97;;;16.90;39.07
3178;BME280;38141;42.666;23.344;2023-02-21T07:14:35;94935.56;;;16.39;39.05
3178;BME280;38141;42.666;23.344;2023-02-21T07:17:01;94950.09;;;16.60;38.81
3178;BME280;38141;42.666;23.344;2023-02-21T07:19:28;94952.69;;;16.40;39.43
3178;BME280;38141;42.666;23.344;2023-02-21T07:21:56;94947.03;;;16.54;38.82
3178;BME280;38141;42.666;23.344;2023-02-21T07:24:23;94944.72;;;15.69;40.35
3178;BME280;38141;42.666;23.344;2023-02-21T07:26:50;94936.56;;;16.26;39.84
3178;BME280;38141;42.666;23.344;2023-02-21T07:29:16;94941.78;;;16.13;39.50
3178;BME280;38141;42.666;23.344;2023-02-21T07:31:43;94929.28;;;16.16;40.43
3178;BME280;38141;42.666;23.344;2023-02-21T07:34:10;94932.38;;;17.14;38.71
3178;BME280;38141;42.666;23.344;2023-02-21T07:36:37;94923.38;;;17.76;37.82
3178;BME280;38141;42.666;23.344;2023-02-21T07:39:06;94911.38;;;16.65;38.69
3178;BME280;38141;42.666;23.344;2023-02-21T07:41:32;94868.09;;;17.46;38.21
3178;BME280;38141;42.666;23.344;2023-02-21T07:43:59;94915.00;;;18.03;37.70
3178;BME280;38141;42.666;23.344;2023-02-21T07:46:27;94919.03;;;18.31;36.49
3178;BME280;38141;42.666;23.344;2023-02-21T07:48:54;94926.28;;;19.06;35.49
3178;BME280;38141;42.666;23.344;2023-02-21T07:51:21;94931.84;;;21.28;32.59
3178;BME280;38141;42.666;23.344;2023-02-21T07:53:48;94910.25;;;20.04;33.69
3178;BME280;38141;42.666;23.344;2023-02-21T07:56:16;94912.78;;;17.59;37.34
3178;BME280;38141;42.666;23.344;2023-02-21T07:58:43;94886.16;;;17.00;38.02
3178;BME280;38141;42.666;23.344;2023-02-21T08:01:09;94905.22;;;17.04;38.28
3178;BME280;38141;42.666;23.344;2023-02-21T08:03:36;94908.94;;;16.20;39.76
3178;BME280;38141;42.666;23.344;2023-02-21T08:06:05;94910.75;;;16.54;39.29
3178;BME280;38141;42.666;23.344;2023-02-21T08:08:32;94901.28;;;16.62;39.26
3178;BME280;38141;42.666;23.344;2023-02-21T08:10:58;94904.38;;;16.64;38.88
3178;BME280;38141;42.666;23.344;2023-02-21T08:13:26;94908.50;;;16.49;39.26
3178;BME280;38141;42.666;23.344;2023-02-21T08:15:53;94907.56;;;15.78;41.18
3178;BME280;38141;42.666;23.344;2023-02-21T08:18:21;94889.16;;;15.22;40.96
3178;BME280;38141;42.666;23.344;2023-02-21T08:20:49;94903.41;;;15.70;40.87
3178;BME280;38141;42.666;23.344;2023-02-21T08:23:16;94918.25;;;15.96;40.48
3178;BME280;38141;42.666;23.344;2023-02-21T08:25:45;94906.22;;;15.90;40.50
3178;BME280;38141;42.666;23.344;2023-02-21T08:28:12;94889.38;;;15.98;40.02
3178;BME280;38141;42.666;23.344;2023-02-21T08:30:40;94902.16;;;15.75;40.51
3178;BME280;38141;42.666;23.344;2023-02-21T08:33:08;94891.78;;;17.92;37.40
3178;BME280;38141;42.666;23.344;2023-02-21T08:35:34;94890.47;;;18.16;36.35
3178;BME280;38141;42.666;23.344;2023-02-21T08:38:01;94889.44;;;19.07;35.73
3178;BME280;38141;42.666;23.344;2023-02-21T08:40:30;94888.03;;;18.99;35.27
3178;BME280;38141;42.666;23.344;2023-02-21T08:42:58;94889.50;;;20.15;33.95
3178;BME280;38141;42.666;23.344;2023-02-21T08:45:27;94888.13;;;19.40;34.87
3178;BME280;38141;42.666;23.344;2023-02-21T08:47:56;94892.31;;;19.86;34.46
3178;BME280;38141;42.666;23.344;2023-02-21T08:50:26;94887.50;;;19.49;35.18
3178;BME280;38141;42.666;23.344;2023-02-21T08:52:53;94884.22;;;18.96;35.78
3178;BME280;38141;42.666;23.344;2023-02-21T08:55:21;94867.47;;;19.36;34.90
3178;BME280;38141;42.666;23.344;2023-02-21T08:57:55;94888.28;;;20.04;34.55
3178;BME280;38141;42.666;23.344;2023-02-21T09:00:23;94896.84;;;20.06;34.03
3178;BME280;38141;42.666;23.344;2023-02-21T09:02:53;94888.13;;;19.69;34.24
3178;BME280;38141;42.666;23.344;2023-02-21T09:05:26;94872.13;;;19.80;34.50
3178;BME280;38141;42.666;23.344;2023-02-21T09:07:55;94882.91;;;20.25;33.82
3178;BME280;38141;42.666;23.344;2023-02-21T09:10:24;94870.66;;;20.77;33.25
3178;BME280;38141;42.666;23.344;2023-02-21T09:12:50;94863.38;;;19.44;34.58
3178;BME280;38141;42.666;23.344;2023-02-21T09:15:18;94880.28;;;20.94;33.44
3178;BME280;38141;42.666;23.344;2023-02-21T09:17:44;94880.16;;;24.32;29.85
3178;BME280;38141;42.666;23.344;2023-02-21T09:20:15;94890.53;;;26.97;26.66
3178;BME280;38141;42.666;23.344;2023-02-21T09:22:44;94886.47;;;30.39;23.28
3178;BME280;38141;42.666;23.344;2023-02-21T09:25:13;94873.81;;;27.98;25.01
3178;BME280;38141;42.666;23.344;2023-02-21T09:27:40;94883.00;;;29.04;24.04
3178;BME280;38141;42.666;23.344;2023-02-21T09:30:09;94871.63;;;29.61;23.61
3178;BME280;38141;42.666;23.344;2023-02-21T09:32:37;94877.16;;;32.79;20.99
3178;BME280;38141;42.666;23.344;2023-02-21T09:35:04;94890.06;;;34.86;19.59
3178;BME280;38141;42.666;23.344;2023-02-21T09:37:39;94873.56;;;33.75;19.66
3178;BME280;38141;42.666;23.344;2023-02-21T09:40:15;94873.69;;;34.71;19.35
3178;BME280;38141;42.666;23.344;2023-02-21T09:42:43;94874.22;;;35.93;18.43
3178;BME280;38141;42.666;23.344;2023-02-21T09:45:14;94863.94;;;37.41;17.61
3178;BME280;38141;42.666;23.344;2023-02-21T09:47:43;94852.25;;;33.67;19.82
3178;BME280;38141;42.666;23.344;2023-02-21T09:50:14;94843.91;;;32.34;20.47
3178;BME280;38141;42.666;23.344;2023-02-21T09:52:44;94825.25;;;29.69;22.39
3178;BME280;38141;42.666;23.344;2023-02-21T09:55:21;94837.66;;;27.72;24.24
3178;BME280;38141;42.666;23.344;2023-02-21T09:57:53;94831.00;;;26.83;25.04
3178;BME280;38141;42.666;23.344;2023-02-21T10:00:21;94810.69;;;25.63;25.77
3178;BME280;38141;42.666;23.344;2023-02-21T10:02:56;94830.50;;;26.00;25.81
3178;BME280;38141;42.666;23.344;2023-02-21T10:05:43;94827.34;;;24.77;27.31
3178;BME280;38141;42.666;23.344;2023-02-21T10:08:18;94819.50;;;24.28;27.69
3178;BME280;38141;42.666;23.344;2023-02-21T10:10:52;94810.97;;;23.99;27.70
3178;BME280;38141;42.666;23.344;2023-02-21T10:13:29;94794.25;;;22.70;29.21
3178;BME280;38141;42.666;23.344;2023-02-21T10:16:01;94802.56;;;24.83;27.58
3178;BME280;38141;42.666;23.344;2023-02-21T10:18:34;94798.69;;;24.42;27.67
3178;BME280;38141;42.666;23.344;2023-02-21T10:21:11;94788.72;;;24.35;27.20
3178;BME280;38141;42.666;23.344;2023-02-21T10:23:42;94788.31;;;24.28;28.00
3178;BME280;38141;42.666;23.344;2023-02-21T10:26:16;94755.97;;;24.43;27.67
3178;BME280;38141;42.666;23.344;2023-02-21T10:28:44;94770.38;;;25.48;26.34
3178;BME280;38141;42.666;23.344;2023-02-21T10:31:14;94775.16;;;25.77;26.39
3178;BME280;38141;42.666;23.344;2023-02-21T10:33:43;94774.88;;;25.60;25.86
3178;BME280;38141;42.666;23.344;2023-02-21T10:36:12;94771.09;;;25.19;26.71
3178;BME280;38141;42.666;23.344;2023-02-21T10:38:42;94756.69;;;25.30;26.43
3178;BME280;38141;42.666;23.344;2023-02-21T10:41:13;94750.31;;;25.00;26.37
3178;BME280;38141;42.666;23.344;2023-02-21T10:43:43;94746.72;;;25.23;26.40
3178;BME280;38141;42.666;23.344;2023-02-21T10:46:15;94749.06;;;25.54;25.78
3178;BME280;38141;42.666;23.344;2023-02-21T10:48:45;94743.31;;;25.87;25.43
3178;BME280;38141;42.666;23.344;2023-02-21T10:51:14;94711.94;;;25.81;25.04
3178;BME280;38141;42.666;23.344;2023-02-21T10:53:42;94727.25;;;25.76;25.41
3178;BME280;38141;42.666;23.344;2023-02-21T10:56:26;94715.69;;;26.68;22.67
3178;BME280;38141;42.666;23.344;2023-02-21T10:58:55;94714.84;;;25.72;22.47
3178;BME280;38141;42.666;23.344;2023-02-21T11:01:32;94717.69;;;25.18;22.72
3178;BME280;38141;42.666;23.344;2023-02-21T11:04:02;94708.28;;;25.54;22.66
3178;BME280;38141;42.666;23.344;2023-02-21T11:06:35;94681.44;;;25.95;21.92
3178;BME280;38141;42.666;23.344;2023-02-21T11:09:23;94693.44;;;26.42;21.65
3178;BME280;38141;42.666;23.344;2023-02-21T11:11:59;94686.56;;;26.78;21.54
3178;BME280;38141;42.666;23.344;2023-02-21T11:14:28;94678.59;;;26.25;21.91
3178;BME280;38141;42.666;23.344;2023-02-21T11:17:09;94685.47;;;26.29;22.19
3178;BME280;38141;42.666;23.344;2023-02-21T11:19:49;94677.06;;;25.89;22.29
3178;BME280;38141;42.666;23.344;2023-02-21T11:22:18;94674.72;;;25.08;22.81
3178;BME280;38141;42.666;23.344;2023-02-21T11:24:58;94678.63;;;25.46;22.47
3178;BME280;38141;42.666;23.344;2023-02-21T11:27:30;94652.50;;;24.26;23.55
3178;BME280;38141;42.666;23.344;2023-02-21T11:29:58;94666.09;;;24.39;23.56
3178;BME280;38141;42.666;23.344;2023-02-21T11:32:30;94654.56;;;25.66;22.56
3178;BME280;38141;42.666;23.344;2023-02-21T11:35:05;94668.41;;;25.08;23.00
3178;BME280;38141;42.666;23.344;2023-02-21T11:37:32;94652.66;;;24.46;23.61
3178;BME280;38141;42.666;23.344;2023-02-21T11:40:00;94647.94;;;24.76;23.03
3178;BME280;38141;42.666;23.344;2023-02-21T11:42:32;94657.00;;;24.76;22.87
3178;BME280;38141;42.666;23.344;2023-02-21T11:45:18;94636.09;;;25.49;22.80
3178;BME280;38141;42.666;23.344;2023-02-21T11:47:52;94628.03;;;24.87;23.37
3178;BME280;38141;42.666;23.344;2023-02-21T11:50:24;94629.56;;;25.17;23.36
3178;BME280;38141;42.666;23.344;2023-02-21T11:52:58;94636.63;;;25.33;22.80
3178;BME280;38141;42.666;23.344;2023-02-21T11:55:26;94610.13;;;24.58;23.51
3178;BME280;38141;42.666;23.344;2023-02-21T11:58:04;94620.44;;;24.58;23.70
3178;BME280;38141;42.666;23.344;2023-02-21T12:00:40;94592.66;;;24.14;24.03
3178;BME280;38141;42.666;23.344;2023-02-21T12:03:21;94608.31;;;23.69;24.82
3178;BME280;38141;42.666;23.344;2023-02-21T12:05:59;94594.09;;;23.85;24.27
3178;BME280;38141;42.666;23.344;2023-02-21T12:08:38;94596.91;;;24.00;24.65
3178;BME280;38141;42.666;23.344;2023-02-21T12:11:14;94565.16;;;23.72;24.89
3178;BME280;38141;42.666;23.344;2023-02-21T12:13:51;94586.75;;;24.59;23.84
3178;BME280;38141;42.666;23.344;2023-02-21T12:16:27;94567.03;;;23.89;24.79
3178;BME280;38141;42.666;23.344;2023-02-21T12:19:12;94588.66;;;24.15;24.84
3178;BME280;38141;42.666;23.344;2023-02-21T12:21:56;94580.41;;;23.34;24.88
3178;BME280;38141;42.666;23.344;2023-02-21T12:24:35;94566.59;;;23.01;25.43
3178;BME280;38141;42.666;23.344;2023-02-21T12:27:10;94552.09;;;22.74;25.65
3178;BME280;38141;42.666;23.344;2023-02-21T12:29:54;94546.00;;;23.44;25.00
3178;BME280;38141;42.666;23.344;2023-02-21T12:32:43;94557.06;;;23.02;25.94
3178;BME280;38141;42.666;23.344;2023-02-21T12:38:31;94555.53;;;22.41;26.28
3178;BME280;38141;42.666;23.344;2023-02-21T12:41:10;94553.47;;;22.69;26.27
3178;BME280;38141;42.666;23.344;2023-02-21T12:43:51;94552.06;;;22.92;26.15
3178;BME280;38141;42.666;23.344;2023-02-21T12:46:27;94551.75;;;23.23;25.49
3178;BME280;38141;42.666;23.344;2023-02-21T12:49:01;94544.81;;;22.94;26.43
3178;BME280;38141;42.666;23.344;2023-02-21T12:51:35;94551.94;;;23.52;25.88
3178;BME280;38141;42.666;23.344;2023-02-21T12:54:05;94555.31;;;23.80;25.43
3178;BME280;38141;42.666;23.344;2023-02-21T12:56:40;94546.38;;;23.61;25.31
3178;BME280;38141;42.666;23.344;2023-02-21T12:59:14;94553.75;;;23.55;25.45
3178;BME280;38141;42.666;23.344;2023-02-21T13:01:48;94535.03;;;23.59;25.74
3178;BME280;38141;42.666;23.344;2023-02-21T13:04:23;94545.00;;;23.24;26.10
3178;BME280;38141;42.666;23.344;2023-02-21T13:06:56;94525.31;;;23.07;26.11
3178;BME280;38141;42.666;23.344;2023-02-21T13:09:30;94546.28;;;22.72;26.39
3178;BME280;38141;42.666;23.344;2023-02-21T13:12:03;94541.00;;;22.13;27.00
3178;BME280;38141;42.666;23.344;2023-02-21T13:14:39;94539.31;;;22.25;26.80
3178;BME280;38141;42.666;23.344;2023-02-21T13:17:11;94526.31;;;22.26;26.83
3178;BME280;38141;42.666;23.344;2023-02-21T13:19:42;94507.97;;;22.65;26.39
3178;BME280;38141;42.666;23.344;2023-02-21T13:25:41;94523.22;;;22.42;26.65
3178;BME280;38141;42.666;23.344;2023-02-21T13:28:15;94524.25;;;22.53;26.89
3178;BME280;38141;42.666;23.344;2023-02-21T13:30:45;94498.19;;;22.54;26.42
3178;BME280;38141;42.666;23.344;2023-02-21T13:33:24;94510.97;;;22.34;26.43
3178;BME280;38141;42.666;23.344;2023-02-21T13:35:51;94479.91;;;22.24;26.67
3178;BME280;38141;42.666;23.344;2023-02-21T13:38:28;94511.16;;;22.21;26.67
3178;BME280;38141;42.666;23.344;2023-02-21T13:41:04;94503.59;;;22.31;26.73
3178;BME280;38141;42.666;23.344;2023-02-21T13:43:35;94506.50;;;22.45;26.75
3178;BME280;38141;42.666;23.344;2023-02-21T13:46:24;94502.47;;;22.74;26.25
3178;BME280;38141;42.666;23.344;2023-02-21T13:52:14;94476.88;;;22.04;26.85
3178;BME280;38141;42.666;23.344;2023-02-21T13:55:07;94490.31;;;22.29;26.67